KFMM

Fort Morgan Municipal Airport

Fort Morgan, Colorado, USA
METAR KFMM 240215Z AUTO 04006KT 10SM CLR 19/09 A2992 RMK AO2 T01940094
Observed Flight Rules
May-24 @ 02:15 UTC (7 minutes ago) Visual Flight Rules
Wind Visibility Clouds
40° at 6 knots 10 miles
  • Clear skies
Temperatures Readings
Current 19°C / 66°F
Dewpoint 9°C / 48°F
Humidity 52%
Altimeter 29.92" Hg
Pressure 1013 hPa
Elevation 1393
METAR KFMM 240215Z AUTO 04006KT 10SM CLR 19/09 A2992 RMK AO2 T01940094
Observed Flight Rules
May-24 @ 02:15 UTC
(7 minutes ago)
VFR
Wind Visibility
40° at 6 knots 10 miles
Clouds
  • Clear skies
Temperature Dewpoint
19°C / 66°F 9°C / 48°F
Humidity Altimeter Pressure
52% 29.92" Hg 1013 hPa